sensor_id;sensor_type;location;lat;lon;timestamp;P1;durP1;ratioP1;P2;durP2;ratioP2
67191;SDS011;54120;53.504;49.426;2023-03-01T00:01:37;20.48;;;12.13;;
67191;SDS011;54120;53.504;49.426;2023-03-01T00:04:03;19.35;;;11.57;;
67191;SDS011;54120;53.504;49.426;2023-03-01T00:06:29;20.95;;;12.48;;
67191;SDS011;54120;53.504;49.426;2023-03-01T00:08:55;21.55;;;13.02;;
67191;SDS011;54120;53.504;49.426;2023-03-01T00:11:22;19.42;;;11.68;;
67191;SDS011;54120;53.504;49.426;2023-03-01T00:13:51;19.42;;;11.98;;
67191;SDS011;54120;53.504;49.426;2023-03-01T00:16:20;18.70;;;11.52;;
67191;SDS011;54120;53.504;49.426;2023-03-01T00:18:58;19.77;;;12.20;;
67191;SDS011;54120;53.504;49.426;2023-03-01T00:21:25;21.13;;;11.95;;
67191;SDS011;54120;53.504;49.426;2023-03-01T00:23:51;19.30;;;11.68;;
67191;SDS011;54120;53.504;49.426;2023-03-01T00:26:19;17.73;;;11.55;;
67191;SDS011;54120;53.504;49.426;2023-03-01T00:28:46;19.70;;;11.63;;
67191;SDS011;54120;53.504;49.426;2023-03-01T00:31:17;17.60;;;11.10;;
67191;SDS011;54120;53.504;49.426;2023-03-01T00:33:45;18.63;;;11.85;;
67191;SDS011;54120;53.504;49.426;2023-03-01T00:36:12;16.25;;;10.15;;
67191;SDS011;54120;53.504;49.426;2023-03-01T00:38:41;17.75;;;10.85;;
67191;SDS011;54120;53.504;49.426;2023-03-01T00:41:11;17.38;;;10.18;;
67191;SDS011;54120;53.504;49.426;2023-03-01T00:43:39;14.68;;;9.52;;
67191;SDS011;54120;53.504;49.426;2023-03-01T00:46:06;16.10;;;9.63;;
67191;SDS011;54120;53.504;49.426;2023-03-01T00:48:42;14.00;;;9.13;;
67191;SDS011;54120;53.504;49.426;2023-03-01T00:51:10;14.98;;;9.45;;
67191;SDS011;54120;53.504;49.426;2023-03-01T00:53:38;15.50;;;10.13;;
67191;SDS011;54120;53.504;49.426;2023-03-01T00:56:05;18.60;;;10.48;;
67191;SDS011;54120;53.504;49.426;2023-03-01T00:58:33;17.42;;;10.68;;
67191;SDS011;54120;53.504;49.426;2023-03-01T01:01:00;15.63;;;9.60;;
67191;SDS011;54120;53.504;49.426;2023-03-01T01:03:26;16.70;;;9.70;;
67191;SDS011;54120;53.504;49.426;2023-03-01T01:05:52;16.85;;;9.85;;
67191;SDS011;54120;53.504;49.426;2023-03-01T01:08:19;17.17;;;10.23;;
67191;SDS011;54120;53.504;49.426;2023-03-01T01:10:46;16.50;;;9.77;;
67191;SDS011;54120;53.504;49.426;2023-03-01T01:13:12;20.38;;;10.55;;
67191;SDS011;54120;53.504;49.426;2023-03-01T01:15:39;14.88;;;9.98;;
67191;SDS011;54120;53.504;49.426;2023-03-01T01:18:05;14.82;;;9.60;;
67191;SDS011;54120;53.504;49.426;2023-03-01T01:20:32;16.00;;;9.20;;
67191;SDS011;54120;53.504;49.426;2023-03-01T01:23:00;16.38;;;9.98;;
67191;SDS011;54120;53.504;49.426;2023-03-01T01:25:26;16.90;;;9.88;;
67191;SDS011;54120;53.504;49.426;2023-03-01T01:27:52;14.93;;;10.15;;
67191;SDS011;54120;53.504;49.426;2023-03-01T01:30:18;13.35;;;9.40;;
67191;SDS011;54120;53.504;49.426;2023-03-01T01:32:44;16.13;;;9.77;;
67191;SDS011;54120;53.504;49.426;2023-03-01T01:35:10;16.10;;;9.77;;
67191;SDS011;54120;53.504;49.426;2023-03-01T01:37:36;17.02;;;10.60;;
67191;SDS011;54120;53.504;49.426;2023-03-01T01:40:02;13.82;;;9.27;;
67191;SDS011;54120;53.504;49.426;2023-03-01T01:42:31;16.17;;;9.63;;
67191;SDS011;54120;53.504;49.426;2023-03-01T01:47:55;16.52;;;9.98;;
67191;SDS011;54120;53.504;49.426;2023-03-01T01:50:26;14.40;;;9.63;;
67191;SDS011;54120;53.504;49.426;2023-03-01T01:52:52;15.63;;;9.88;;
67191;SDS011;54120;53.504;49.426;2023-03-01T01:55:23;15.35;;;9.05;;
67191;SDS011;54120;53.504;49.426;2023-03-01T01:57:53;16.77;;;10.13;;
67191;SDS011;54120;53.504;49.426;2023-03-01T02:00:24;17.92;;;10.02;;
67191;SDS011;54120;53.504;49.426;2023-03-01T02:02:55;16.52;;;9.50;;
67191;SDS011;54120;53.504;49.426;2023-03-01T02:08:23;15.05;;;9.00;;
67191;SDS011;54120;53.504;49.426;2023-03-01T02:10:52;15.45;;;9.27;;
67191;SDS011;54120;53.504;49.426;2023-03-01T02:13:20;17.60;;;10.13;;
67191;SDS011;54120;53.504;49.426;2023-03-01T02:15:45;16.80;;;10.25;;
67191;SDS011;54120;53.504;49.426;2023-03-01T02:18:12;18.10;;;10.85;;
67191;SDS011;54120;53.504;49.426;2023-03-01T02:20:49;16.73;;;10.10;;
67191;SDS011;54120;53.504;49.426;2023-03-01T02:23:16;16.65;;;9.85;;
67191;SDS011;54120;53.504;49.426;2023-03-01T02:25:51;15.02;;;9.82;;
67191;SDS011;54120;53.504;49.426;2023-03-01T02:28:21;15.55;;;10.18;;
67191;SDS011;54120;53.504;49.426;2023-03-01T02:31:01;15.73;;;9.60;;
67191;SDS011;54120;53.504;49.426;2023-03-01T02:33:46;16.92;;;9.40;;
67191;SDS011;54120;53.504;49.426;2023-03-01T02:36:17;15.18;;;9.57;;
67191;SDS011;54120;53.504;49.426;2023-03-01T02:38:44;15.15;;;9.95;;
67191;SDS011;54120;53.504;49.426;2023-03-01T02:41:13;17.00;;;10.10;;
67191;SDS011;54120;53.504;49.426;2023-03-01T02:43:42;16.63;;;9.23;;
67191;SDS011;54120;53.504;49.426;2023-03-01T02:46:13;14.55;;;9.80;;
67191;SDS011;54120;53.504;49.426;2023-03-01T02:48:46;16.65;;;10.25;;
67191;SDS011;54120;53.504;49.426;2023-03-01T02:56:46;18.25;;;10.27;;
67191;SDS011;54120;53.504;49.426;2023-03-01T02:59:16;15.68;;;9.13;;
67191;SDS011;54120;53.504;49.426;2023-03-01T03:01:44;17.05;;;10.02;;
67191;SDS011;54120;53.504;49.426;2023-03-01T03:04:14;16.00;;;9.55;;
67191;SDS011;54120;53.504;49.426;2023-03-01T03:06:46;18.27;;;10.60;;
67191;SDS011;54120;53.504;49.426;2023-03-01T03:09:14;17.38;;;9.85;;
67191;SDS011;54120;53.504;49.426;2023-03-01T03:11:41;16.08;;;9.20;;
67191;SDS011;54120;53.504;49.426;2023-03-01T03:14:09;16.35;;;9.63;;
67191;SDS011;54120;53.504;49.426;2023-03-01T03:16:41;16.27;;;9.13;;
67191;SDS011;54120;53.504;49.426;2023-03-01T03:19:08;16.73;;;10.23;;
67191;SDS011;54120;53.504;49.426;2023-03-01T03:21:34;15.27;;;9.07;;
67191;SDS011;54120;53.504;49.426;2023-03-01T03:24:00;16.92;;;11.00;;
67191;SDS011;54120;53.504;49.426;2023-03-01T03:26:26;15.45;;;9.38;;
67191;SDS011;54120;53.504;49.426;2023-03-01T03:28:52;14.52;;;9.43;;
67191;SDS011;54120;53.504;49.426;2023-03-01T03:31:18;13.82;;;8.68;;
67191;SDS011;54120;53.504;49.426;2023-03-01T03:33:45;14.32;;;9.27;;
67191;SDS011;54120;53.504;49.426;2023-03-01T03:36:14;17.63;;;8.98;;
67191;SDS011;54120;53.504;49.426;2023-03-01T03:38:43;14.05;;;9.27;;
67191;SDS011;54120;53.504;49.426;2023-03-01T03:41:10;20.00;;;10.05;;
67191;SDS011;54120;53.504;49.426;2023-03-01T03:43:38;13.65;;;8.73;;
67191;SDS011;54120;53.504;49.426;2023-03-01T03:46:06;15.35;;;9.32;;
67191;SDS011;54120;53.504;49.426;2023-03-01T03:48:42;14.48;;;8.82;;
67191;SDS011;54120;53.504;49.426;2023-03-01T03:51:10;15.48;;;9.45;;
67191;SDS011;54120;53.504;49.426;2023-03-01T03:53:37;14.95;;;8.80;;
67191;SDS011;54120;53.504;49.426;2023-03-01T03:56:03;14.32;;;8.82;;
67191;SDS011;54120;53.504;49.426;2023-03-01T03:58:29;16.10;;;9.35;;
67191;SDS011;54120;53.504;49.426;2023-03-01T04:00:56;14.38;;;8.93;;
67191;SDS011;54120;53.504;49.426;2023-03-01T04:03:23;16.92;;;9.43;;
67191;SDS011;54120;53.504;49.426;2023-03-01T04:05:50;16.70;;;9.18;;
67191;SDS011;54120;53.504;49.426;2023-03-01T04:08:17;17.25;;;9.07;;
67191;SDS011;54120;53.504;49.426;2023-03-01T04:10:49;14.45;;;9.13;;
67191;SDS011;54120;53.504;49.426;2023-03-01T04:13:18;13.95;;;9.00;;
67191;SDS011;54120;53.504;49.426;2023-03-01T04:15:49;13.80;;;8.88;;
67191;SDS011;54120;53.504;49.426;2023-03-01T04:18:16;14.90;;;8.88;;
67191;SDS011;54120;53.504;49.426;2023-03-01T04:20:44;14.93;;;9.20;;
67191;SDS011;54120;53.504;49.426;2023-03-01T04:23:12;14.43;;;8.35;;
67191;SDS011;54120;53.504;49.426;2023-03-01T04:28:31;14.18;;;8.43;;
67191;SDS011;54120;53.504;49.426;2023-03-01T04:33:39;14.90;;;7.95;;
67191;SDS011;54120;53.504;49.426;2023-03-01T04:36:07;14.98;;;8.32;;
67191;SDS011;54120;53.504;49.426;2023-03-01T04:38:34;11.85;;;7.38;;
67191;SDS011;54120;53.504;49.426;2023-03-01T04:41:03;12.73;;;7.82;;
67191;SDS011;54120;53.504;49.426;2023-03-01T04:43:33;12.65;;;7.55;;
67191;SDS011;54120;53.504;49.426;2023-03-01T04:46:01;13.70;;;8.60;;
67191;SDS011;54120;53.504;49.426;2023-03-01T04:48:28;14.32;;;8.38;;
67191;SDS011;54120;53.504;49.426;2023-03-01T04:50:55;11.05;;;7.63;;
67191;SDS011;54120;53.504;49.426;2023-03-01T04:53:21;12.13;;;7.60;;
67191;SDS011;54120;53.504;49.426;2023-03-01T04:55:47;11.35;;;7.65;;
67191;SDS011;54120;53.504;49.426;2023-03-01T04:58:13;11.68;;;7.22;;
67191;SDS011;54120;53.504;49.426;2023-03-01T05:00:39;11.13;;;7.10;;
67191;SDS011;54120;53.504;49.426;2023-03-01T05:03:05;10.10;;;6.88;;
67191;SDS011;54120;53.504;49.426;2023-03-01T05:05:35;10.90;;;6.85;;
67191;SDS011;54120;53.504;49.426;2023-03-01T05:08:06;9.52;;;6.55;;
67191;SDS011;54120;53.504;49.426;2023-03-01T05:10:35;10.60;;;6.68;;
67191;SDS011;54120;53.504;49.426;2023-03-01T05:13:02;9.65;;;6.60;;
67191;SDS011;54120;53.504;49.426;2023-03-01T05:15:29;11.30;;;6.72;;
67191;SDS011;54120;53.504;49.426;2023-03-01T05:17:57;11.40;;;7.15;;
67191;SDS011;54120;53.504;49.426;2023-03-01T05:20:28;11.00;;;7.07;;
67191;SDS011;54120;53.504;49.426;2023-03-01T05:22:56;11.70;;;6.70;;
67191;SDS011;54120;53.504;49.426;2023-03-01T05:25:24;9.88;;;6.57;;
67191;SDS011;54120;53.504;49.426;2023-03-01T05:27:50;11.57;;;6.50;;
67191;SDS011;54120;53.504;49.426;2023-03-01T05:30:17;10.88;;;6.68;;
67191;SDS011;54120;53.504;49.426;2023-03-01T05:32:44;11.30;;;6.88;;
67191;SDS011;54120;53.504;49.426;2023-03-01T05:35:13;9.65;;;7.00;;
67191;SDS011;54120;53.504;49.426;2023-03-01T05:37:41;8.60;;;6.40;;
67191;SDS011;54120;53.504;49.426;2023-03-01T05:40:12;9.70;;;6.38;;
67191;SDS011;54120;53.504;49.426;2023-03-01T05:42:44;8.73;;;6.20;;
67191;SDS011;54120;53.504;49.426;2023-03-01T05:45:13;11.00;;;6.88;;
67191;SDS011;54120;53.504;49.426;2023-03-01T05:47:40;9.70;;;6.60;;
67191;SDS011;54120;53.504;49.426;2023-03-01T05:50:11;10.23;;;6.70;;
67191;SDS011;54120;53.504;49.426;2023-03-01T05:52:37;8.25;;;6.13;;
67191;SDS011;54120;53.504;49.426;2023-03-01T05:55:03;8.82;;;6.53;;
67191;SDS011;54120;53.504;49.426;2023-03-01T05:57:30;9.55;;;6.45;;
67191;SDS011;54120;53.504;49.426;2023-03-01T05:59:56;8.95;;;6.55;;
67191;SDS011;54120;53.504;49.426;2023-03-01T06:02:22;7.70;;;6.05;;
67191;SDS011;54120;53.504;49.426;2023-03-01T06:04:48;9.18;;;6.15;;
67191;SDS011;54120;53.504;49.426;2023-03-01T06:07:14;8.43;;;6.00;;
67191;SDS011;54120;53.504;49.426;2023-03-01T06:09:40;7.97;;;5.40;;
67191;SDS011;54120;53.504;49.426;2023-03-01T06:12:06;7.15;;;5.47;;
67191;SDS011;54120;53.504;49.426;2023-03-01T06:14:32;7.90;;;5.80;;
67191;SDS011;54120;53.504;49.426;2023-03-01T06:16:58;7.57;;;5.30;;
67191;SDS011;54120;53.504;49.426;2023-03-01T06:19:24;6.57;;;4.90;;
67191;SDS011;54120;53.504;49.426;2023-03-01T06:21:50;8.30;;;5.47;;
67191;SDS011;54120;53.504;49.426;2023-03-01T06:24:16;8.05;;;5.55;;
67191;SDS011;54120;53.504;49.426;2023-03-01T06:26:42;7.20;;;5.53;;
67191;SDS011;54120;53.504;49.426;2023-03-01T06:29:11;111.43;;;59.00;;
67191;SDS011;54120;53.504;49.426;2023-03-01T06:31:36;13.18;;;8.23;;
67191;SDS011;54120;53.504;49.426;2023-03-01T06:34:02;18.83;;;11.05;;
67191;SDS011;54120;53.504;49.426;2023-03-01T06:36:28;11.32;;;7.45;;
67191;SDS011;54120;53.504;49.426;2023-03-01T06:38:54;14.00;;;9.05;;
67191;SDS011;54120;53.504;49.426;2023-03-01T06:41:20;10.35;;;6.25;;
67191;SDS011;54120;53.504;49.426;2023-03-01T06:43:46;6.75;;;5.05;;
67191;SDS011;54120;53.504;49.426;2023-03-01T06:46:12;5.50;;;4.30;;
67191;SDS011;54120;53.504;49.426;2023-03-01T06:48:38;4.80;;;3.65;;
67191;SDS011;54120;53.504;49.426;2023-03-01T06:51:04;5.10;;;4.05;;
67191;SDS011;54120;53.504;49.426;2023-03-01T06:53:30;6.25;;;4.40;;
67191;SDS011;54120;53.504;49.426;2023-03-01T06:55:56;6.85;;;4.28;;
67191;SDS011;54120;53.504;49.426;2023-03-01T06:58:26;4.68;;;3.58;;
67191;SDS011;54120;53.504;49.426;2023-03-01T07:00:52;3.95;;;2.78;;
67191;SDS011;54120;53.504;49.426;2023-03-01T07:03:18;4.95;;;2.88;;
67191;SDS011;54120;53.504;49.426;2023-03-01T07:05:44;5.63;;;2.80;;
67191;SDS011;54120;53.504;49.426;2023-03-01T07:08:10;4.75;;;2.70;;
67191;SDS011;54120;53.504;49.426;2023-03-01T07:10:36;4.28;;;2.72;;
67191;SDS011;54120;53.504;49.426;2023-03-01T07:13:02;6.85;;;3.00;;
67191;SDS011;54120;53.504;49.426;2023-03-01T07:15:28;7.53;;;4.18;;
67191;SDS011;54120;53.504;49.426;2023-03-01T07:17:55;6.32;;;3.88;;
67191;SDS011;54120;53.504;49.426;2023-03-01T07:20:21;5.95;;;3.13;;
67191;SDS011;54120;53.504;49.426;2023-03-01T07:22:50;12.38;;;6.88;;
67191;SDS011;54120;53.504;49.426;2023-03-01T07:25:19;5.68;;;3.97;;
67191;SDS011;54120;53.504;49.426;2023-03-01T07:27:51;6.43;;;4.18;;
67191;SDS011;54120;53.504;49.426;2023-03-01T07:30:18;5.15;;;2.72;;
67191;SDS011;54120;53.504;49.426;2023-03-01T07:32:45;9.20;;;4.55;;
67191;SDS011;54120;53.504;49.426;2023-03-01T07:35:12;3.42;;;2.53;;
67191;SDS011;54120;53.504;49.426;2023-03-01T07:37:38;3.30;;;2.20;;
67191;SDS011;54120;53.504;49.426;2023-03-01T07:40:04;2.35;;;2.08;;
67191;SDS011;54120;53.504;49.426;2023-03-01T07:42:30;3.10;;;2.22;;
67191;SDS011;54120;53.504;49.426;2023-03-01T07:44:56;2.95;;;2.25;;
67191;SDS011;54120;53.504;49.426;2023-03-01T07:47:22;4.07;;;2.30;;
67191;SDS011;54120;53.504;49.426;2023-03-01T07:49:48;3.30;;;2.10;;
67191;SDS011;54120;53.504;49.426;2023-03-01T07:52:14;3.28;;;2.50;;
67191;SDS011;54120;53.504;49.426;2023-03-01T07:54:42;3.22;;;2.45;;
67191;SDS011;54120;53.504;49.426;2023-03-01T07:57:09;3.45;;;2.22;;
67191;SDS011;54120;53.504;49.426;2023-03-01T07:59:36;6.50;;;2.30;;
67191;SDS011;54120;53.504;49.426;2023-03-01T08:02:01;19.20;;;9.38;;
67191;SDS011;54120;53.504;49.426;2023-03-01T08:04:27;6.40;;;2.85;;
67191;SDS011;54120;53.504;49.426;2023-03-01T08:06:54;4.43;;;2.83;;
67191;SDS011;54120;53.504;49.426;2023-03-01T08:09:20;5.10;;;2.75;;
67191;SDS011;54120;53.504;49.426;2023-03-01T08:11:47;5.95;;;2.67;;
67191;SDS011;54120;53.504;49.426;2023-03-01T08:16:25;3.58;;;2.40;;
67191;SDS011;54120;53.504;49.426;2023-03-01T08:18:51;4.07;;;2.50;;
67191;SDS011;54120;53.504;49.426;2023-03-01T08:21:17;3.47;;;2.15;;
67191;SDS011;54120;53.504;49.426;2023-03-01T08:23:44;4.70;;;1.92;;
67191;SDS011;54120;53.504;49.426;2023-03-01T08:28:38;8.75;;;5.68;;
67191;SDS011;54120;53.504;49.426;2023-03-01T08:31:19;2.75;;;1.92;;
67191;SDS011;54120;53.504;49.426;2023-03-01T08:33:54;5.38;;;2.35;;
67191;SDS011;54120;53.504;49.426;2023-03-01T08:36:23;5.90;;;3.80;;
67191;SDS011;54120;53.504;49.426;2023-03-01T08:38:50;6.13;;;2.25;;
67191;SDS011;54120;53.504;49.426;2023-03-01T08:41:17;3.35;;;2.17;;
67191;SDS011;54120;53.504;49.426;2023-03-01T08:43:43;4.50;;;2.20;;
67191;SDS011;54120;53.504;49.426;2023-03-01T08:46:10;3.40;;;1.88;;
67191;SDS011;54120;53.504;49.426;2023-03-01T08:48:37;3.53;;;1.85;;
67191;SDS011;54120;53.504;49.426;2023-03-01T08:51:13;4.32;;;2.40;;
67191;SDS011;54120;53.504;49.426;2023-03-01T08:53:41;3.35;;;1.77;;
67191;SDS011;54120;53.504;49.426;2023-03-01T08:56:07;3.17;;;1.65;;
67191;SDS011;54120;53.504;49.426;2023-03-01T08:58:34;2.80;;;1.90;;
67191;SDS011;54120;53.504;49.426;2023-03-01T09:01:04;4.38;;;1.70;;
67191;SDS011;54120;53.504;49.426;2023-03-01T09:03:33;4.30;;;1.70;;
67191;SDS011;54120;53.504;49.426;2023-03-01T09:06:02;3.25;;;1.80;;
67191;SDS011;54120;53.504;49.426;2023-03-01T09:08:29;2.38;;;2.00;;
67191;SDS011;54120;53.504;49.426;2023-03-01T09:10:56;2.15;;;1.88;;
67191;SDS011;54120;53.504;49.426;2023-03-01T09:13:22;5.07;;;1.77;;
67191;SDS011;54120;53.504;49.426;2023-03-01T09:15:52;5.95;;;1.92;;
67191;SDS011;54120;53.504;49.426;2023-03-01T09:18:18;5.13;;;2.35;;
67191;SDS011;54120;53.504;49.426;2023-03-01T09:20:44;3.13;;;2.00;;
67191;SDS011;54120;53.504;49.426;2023-03-01T09:23:10;3.42;;;1.73;;
67191;SDS011;54120;53.504;49.426;2023-03-01T09:25:36;2.78;;;1.70;;
67191;SDS011;54120;53.504;49.426;2023-03-01T09:28:02;1.80;;;1.50;;
67191;SDS011;54120;53.504;49.426;2023-03-01T09:30:29;5.00;;;2.20;;
67191;SDS011;54120;53.504;49.426;2023-03-01T09:32:56;3.65;;;1.60;;
67191;SDS011;54120;53.504;49.426;2023-03-01T09:35:22;3.53;;;1.83;;
67191;SDS011;54120;53.504;49.426;2023-03-01T09:37:49;1.98;;;1.38;;
67191;SDS011;54120;53.504;49.426;2023-03-01T09:40:19;5.85;;;1.67;;
67191;SDS011;54120;53.504;49.426;2023-03-01T09:42:53;1.80;;;1.30;;
67191;SDS011;54120;53.504;49.426;2023-03-01T09:45:26;3.17;;;1.45;;
67191;SDS011;54120;53.504;49.426;2023-03-01T09:47:59;4.30;;;1.42;;
67191;SDS011;54120;53.504;49.426;2023-03-01T09:50:26;3.70;;;1.40;;
67191;SDS011;54120;53.504;49.426;2023-03-01T09:53:31;2.40;;;1.50;;
67191;SDS011;54120;53.504;49.426;2023-03-01T10:01:09;6.20;;;1.30;;
67191;SDS011;54120;53.504;49.426;2023-03-01T10:03:50;2.55;;;1.23;;
67191;SDS011;54120;53.504;49.426;2023-03-01T10:06:40;2.58;;;1.35;;
67191;SDS011;54120;53.504;49.426;2023-03-01T10:09:12;3.22;;;1.50;;
67191;SDS011;54120;53.504;49.426;2023-03-01T10:11:42;2.97;;;1.40;;
67191;SDS011;54120;53.504;49.426;2023-03-01T10:16:48;4.82;;;1.80;;
67191;SDS011;54120;53.504;49.426;2023-03-01T10:19:38;6.13;;;2.00;;
67191;SDS011;54120;53.504;49.426;2023-03-01T10:22:15;17.90;;;8.60;;
67191;SDS011;54120;53.504;49.426;2023-03-01T10:24:46;5.68;;;2.08;;
67191;SDS011;54120;53.504;49.426;2023-03-01T10:29:43;4.72;;;2.47;;
67191;SDS011;54120;53.504;49.426;2023-03-01T10:32:15;4.70;;;1.50;;
67191;SDS011;54120;53.504;49.426;2023-03-01T10:34:42;2.00;;;1.30;;
67191;SDS011;54120;53.504;49.426;2023-03-01T10:37:16;3.95;;;1.77;;
67191;SDS011;54120;53.504;49.426;2023-03-01T10:39:56;3.70;;;1.77;;
67191;SDS011;54120;53.504;49.426;2023-03-01T10:42:26;10.95;;;1.75;;
67191;SDS011;54120;53.504;49.426;2023-03-01T10:44:53;4.40;;;2.13;;
67191;SDS011;54120;53.504;49.426;2023-03-01T10:47:24;2.97;;;1.60;;
67191;SDS011;54120;53.504;49.426;2023-03-01T10:49:54;2.42;;;1.33;;
67191;SDS011;54120;53.504;49.426;2023-03-01T10:52:26;4.38;;;1.67;;
67191;SDS011;54120;53.504;49.426;2023-03-01T10:54:55;4.40;;;1.40;;
67191;SDS011;54120;53.504;49.426;2023-03-01T10:57:41;2.60;;;1.40;;
67191;SDS011;54120;53.504;49.426;2023-03-01T11:00:14;3.80;;;1.50;;
67191;SDS011;54120;53.504;49.426;2023-03-01T11:02:49;14.93;;;5.82;;
67191;SDS011;54120;53.504;49.426;2023-03-01T11:05:18;4.85;;;1.77;;
67191;SDS011;54120;53.504;49.426;2023-03-01T11:07:47;2.22;;;1.42;;
67191;SDS011;54120;53.504;49.426;2023-03-01T11:10:18;3.90;;;1.75;;
67191;SDS011;54120;53.504;49.426;2023-03-01T11:12:46;5.57;;;2.10;;
67191;SDS011;54120;53.504;49.426;2023-03-01T11:15:45;4.63;;;2.65;;
67191;SDS011;54120;53.504;49.426;2023-03-01T11:18:04;3.90;;;1.25;;
67191;SDS011;54120;53.504;49.426;2023-03-01T11:20:47;3.70;;;2.22;;
67191;SDS011;54120;53.504;49.426;2023-03-01T11:23:16;4.30;;;2.00;;
67191;SDS011;54120;53.504;49.426;2023-03-01T11:25:47;5.70;;;1.83;;
67191;SDS011;54120;53.504;49.426;2023-03-01T11:28:20;8.13;;;2.17;;
67191;SDS011;54120;53.504;49.426;2023-03-01T11:30:55;6.35;;;2.20;;
67191;SDS011;54120;53.504;49.426;2023-03-01T11:36:05;2.17;;;1.35;;
67191;SDS011;54120;53.504;49.426;2023-03-01T11:38:34;2.63;;;1.35;;
67191;SDS011;54120;53.504;49.426;2023-03-01T11:41:11;2.00;;;1.25;;
67191;SDS011;54120;53.504;49.426;2023-03-01T11:49:05;3.58;;;1.60;;
67191;SDS011;54120;53.504;49.426;2023-03-01T11:54:14;3.80;;;1.63;;
67191;SDS011;54120;53.504;49.426;2023-03-01T11:56:55;3.95;;;1.60;;
67191;SDS011;54120;53.504;49.426;2023-03-01T12:00:14;3.58;;;1.45;;
67191;SDS011;54120;53.504;49.426;2023-03-01T12:07:58;3.28;;;1.50;;
67191;SDS011;54120;53.504;49.426;2023-03-01T12:13:26;4.75;;;2.30;;
67191;SDS011;54120;53.504;49.426;2023-03-01T12:16:15;7.68;;;2.28;;
67191;SDS011;54120;53.504;49.426;2023-03-01T12:22:17;4.35;;;1.90;;
67191;SDS011;54120;53.504;49.426;2023-03-01T12:25:25;3.55;;;1.90;;
67191;SDS011;54120;53.504;49.426;2023-03-01T12:31:06;4.95;;;1.95;;
67191;SDS011;54120;53.504;49.426;2023-03-01T12:41:47;5.32;;;1.90;;
67191;SDS011;54120;53.504;49.426;2023-03-01T12:47:26;3.70;;;1.80;;
67191;SDS011;54120;53.504;49.426;2023-03-01T12:53:07;6.40;;;2.30;;
67191;SDS011;54120;53.504;49.426;2023-03-01T12:55:49;3.33;;;1.75;;
67191;SDS011;54120;53.504;49.426;2023-03-01T13:01:04;5.60;;;1.80;;
67191;SDS011;54120;53.504;49.426;2023-03-01T13:06:39;4.22;;;1.50;;
67191;SDS011;54120;53.504;49.426;2023-03-01T13:11:43;10.40;;;3.72;;
67191;SDS011;54120;53.504;49.426;2023-03-01T13:17:29;6.05;;;2.60;;
67191;SDS011;54120;53.504;49.426;2023-03-01T13:20:11;6.38;;;2.35;;
67191;SDS011;54120;53.504;49.426;2023-03-01T13:22:38;6.18;;;3.00;;
67191;SDS011;54120;53.504;49.426;2023-03-01T13:25:12;5.78;;;2.53;;
67191;SDS011;54120;53.504;49.426;2023-03-01T13:27:44;3.92;;;2.03;;
67191;SDS011;54120;53.504;49.426;2023-03-01T13:35:56;5.97;;;2.22;;
67191;SDS011;54120;53.504;49.426;2023-03-01T13:42:25;4.93;;;1.90;;
67191;SDS011;54120;53.504;49.426;2023-03-01T13:46:58;5.38;;;2.10;;
67191;SDS011;54120;53.504;49.426;2023-03-01T13:49:33;4.82;;;1.88;;
67191;SDS011;54120;53.504;49.426;2023-03-01T13:52:36;7.05;;;1.70;;
67191;SDS011;54120;53.504;49.426;2023-03-01T13:55:51;6.00;;;2.22;;
67191;SDS011;54120;53.504;49.426;2023-03-01T13:58:19;3.25;;;1.83;;
67191;SDS011;54120;53.504;49.426;2023-03-01T14:01:06;4.70;;;2.08;;
67191;SDS011;54120;53.504;49.426;2023-03-01T14:03:45;3.40;;;1.63;;
67191;SDS011;54120;53.504;49.426;2023-03-01T14:06:13;3.20;;;1.92;;
67191;SDS011;54120;53.504;49.426;2023-03-01T14:08:46;4.63;;;1.70;;
67191;SDS011;54120;53.504;49.426;2023-03-01T14:17:00;3.28;;;2.28;;
67191;SDS011;54120;53.504;49.426;2023-03-01T14:19:40;3.28;;;1.70;;
67191;SDS011;54120;53.504;49.426;2023-03-01T14:22:13;4.30;;;1.88;;
67191;SDS011;54120;53.504;49.426;2023-03-01T14:25:00;2.22;;;1.75;;
67191;SDS011;54120;53.504;49.426;2023-03-01T14:27:57;2.20;;;1.60;;
67191;SDS011;54120;53.504;49.426;2023-03-01T14:30:38;2.38;;;1.60;;
67191;SDS011;54120;53.504;49.426;2023-03-01T14:33:21;1.95;;;1.50;;
67191;SDS011;54120;53.504;49.426;2023-03-01T14:41:04;2.88;;;1.75;;
67191;SDS011;54120;53.504;49.426;2023-03-01T14:43:41;5.70;;;1.98;;
67191;SDS011;54120;53.504;49.426;2023-03-01T14:46:16;7.75;;;3.10;;
67191;SDS011;54120;53.504;49.426;2023-03-01T14:48:53;6.15;;;2.30;;
67191;SDS011;54120;53.504;49.426;2023-03-01T14:51:21;5.30;;;3.00;;
67191;SDS011;54120;53.504;49.426;2023-03-01T14:53:48;6.28;;;3.25;;
67191;SDS011;54120;53.504;49.426;2023-03-01T14:56:15;5.78;;;3.20;;
67191;SDS011;54120;53.504;49.426;2023-03-01T14:58:42;5.75;;;2.47;;
67191;SDS011;54120;53.504;49.426;2023-03-01T15:01:11;4.05;;;2.00;;
67191;SDS011;54120;53.504;49.426;2023-03-01T15:03:44;5.35;;;1.88;;
67191;SDS011;54120;53.504;49.426;2023-03-01T15:06:20;6.43;;;1.92;;
67191;SDS011;54120;53.504;49.426;2023-03-01T15:08:50;3.55;;;1.75;;
67191;SDS011;54120;53.504;49.426;2023-03-01T15:11:22;3.90;;;2.00;;
67191;SDS011;54120;53.504;49.426;2023-03-01T15:13:52;4.97;;;1.70;;
67191;SDS011;54120;53.504;49.426;2023-03-01T15:16:23;3.53;;;1.63;;
67191;SDS011;54120;53.504;49.426;2023-03-01T15:18:58;4.95;;;2.22;;
67191;SDS011;54120;53.504;49.426;2023-03-01T15:21:33;3.90;;;2.00;;
67191;SDS011;54120;53.504;49.426;2023-03-01T15:26:57;7.13;;;2.67;;
67191;SDS011;54120;53.504;49.426;2023-03-01T15:29:28;4.43;;;1.77;;
67191;SDS011;54120;53.504;49.426;2023-03-01T15:32:06;2.83;;;1.60;;
67191;SDS011;54120;53.504;49.426;2023-03-01T15:34:55;4.78;;;1.95;;
67191;SDS011;54120;53.504;49.426;2023-03-01T15:37:37;5.68;;;2.28;;
67191;SDS011;54120;53.504;49.426;2023-03-01T15:40:25;5.53;;;2.35;;
67191;SDS011;54120;53.504;49.426;2023-03-01T15:42:58;5.15;;;1.88;;
67191;SDS011;54120;53.504;49.426;2023-03-01T15:45:25;4.88;;;2.10;;
67191;SDS011;54120;53.504;49.426;2023-03-01T15:47:54;7.40;;;2.60;;
67191;SDS011;54120;53.504;49.426;2023-03-01T15:50:28;9.73;;;4.05;;
67191;SDS011;54120;53.504;49.426;2023-03-01T15:52:58;8.10;;;3.90;;
67191;SDS011;54120;53.504;49.426;2023-03-01T15:55:27;6.90;;;2.83;;
67191;SDS011;54120;53.504;49.426;2023-03-01T16:00:26;8.02;;;4.20;;
67191;SDS011;54120;53.504;49.426;2023-03-01T16:02:52;6.47;;;2.85;;
67191;SDS011;54120;53.504;49.426;2023-03-01T16:05:19;8.35;;;2.78;;
67191;SDS011;54120;53.504;49.426;2023-03-01T16:07:45;5.82;;;1.95;;
67191;SDS011;54120;53.504;49.426;2023-03-01T16:10:12;7.75;;;3.78;;
67191;SDS011;54120;53.504;49.426;2023-03-01T16:12:38;5.30;;;2.10;;
67191;SDS011;54120;53.504;49.426;2023-03-01T16:15:07;3.33;;;1.90;;
67191;SDS011;54120;53.504;49.426;2023-03-01T16:17:45;2.88;;;1.88;;
67191;SDS011;54120;53.504;49.426;2023-03-01T16:20:11;3.45;;;1.88;;
67191;SDS011;54120;53.504;49.426;2023-03-01T16:22:38;6.65;;;1.90;;
67191;SDS011;54120;53.504;49.426;2023-03-01T16:25:05;5.22;;;1.90;;
67191;SDS011;54120;53.504;49.426;2023-03-01T16:27:31;3.08;;;2.22;;
67191;SDS011;54120;53.504;49.426;2023-03-01T16:29:57;8.50;;;2.10;;
67191;SDS011;54120;53.504;49.426;2023-03-01T16:32:23;3.30;;;1.73;;
67191;SDS011;54120;53.504;49.426;2023-03-01T16:34:50;5.32;;;2.15;;
67191;SDS011;54120;53.504;49.426;2023-03-01T16:37:17;6.43;;;1.85;;